createdAt,value
2022-11-12T00:03:38.698Z,4.25
2022-11-12T00:08:40.466Z,3.60
2022-11-12T00:13:42.376Z,3.25
2022-11-12T00:18:44.148Z,3.58
2022-11-12T00:23:45.932Z,3.70
2022-11-12T00:28:47.777Z,3.65
2022-11-12T00:33:49.626Z,3.25
2022-11-12T00:38:51.358Z,3.47
2022-11-12T00:43:53.122Z,3.80
2022-11-12T00:48:55.015Z,3.88
2022-11-12T00:53:56.754Z,3.75
2022-11-12T00:59:00.118Z,4.40
2022-11-12T01:04:02.203Z,4.53
2022-11-12T01:09:04.146Z,5.32
2022-11-12T01:14:08.014Z,4.15
2022-11-12T01:19:12.109Z,5.10
2022-11-12T01:24:14.031Z,4.70
2022-11-12T01:29:15.915Z,4.50
2022-11-12T01:34:17.830Z,4.53
2022-11-12T01:39:19.648Z,4.93
2022-11-12T01:44:27.081Z,5.40
2022-11-12T01:49:39.573Z,4.88
2022-11-12T01:54:42.228Z,4.75
2022-11-12T01:59:48.626Z,4.82
2022-11-12T02:04:51.304Z,5.63
2022-11-12T02:09:53.720Z,4.80
2022-11-12T02:14:55.613Z,5.15
2022-11-12T02:20:01.387Z,4.57
2022-11-12T02:25:03.334Z,5.10
2022-11-12T02:30:05.661Z,5.30
2022-11-12T02:35:08.036Z,5.47
2022-11-12T02:40:10.369Z,5.10
2022-11-12T02:45:12.312Z,4.53
2022-11-12T02:50:14.259Z,5.85
2022-11-12T02:55:16.068Z,5.18
2022-11-12T03:00:18.716Z,4.72
2022-11-12T03:05:20.531Z,4.82
2022-11-12T03:10:22.599Z,5.93
2022-11-12T03:15:24.583Z,5.13
2022-11-12T03:20:27.501Z,4.93
2022-11-12T03:25:29.598Z,5.68
2022-11-12T03:30:33.739Z,6.03
2022-11-12T03:35:36.006Z,4.88
2022-11-12T03:40:38.083Z,4.90
2022-11-12T03:45:40.037Z,4.97
2022-11-12T03:50:42.045Z,4.68
2022-11-12T03:55:43.934Z,4.90
2022-11-12T04:00:45.748Z,4.38
2022-11-12T04:06:19.780Z,5.05
2022-11-12T04:11:21.843Z,5.40
2022-11-12T04:16:42.461Z,6.50
2022-11-12T04:22:00.834Z,5.65
2022-11-12T04:27:02.784Z,4.90
2022-11-12T04:32:04.821Z,5.47
2022-11-12T04:37:07.067Z,6.55
2022-11-12T04:42:28.940Z,5.53
2022-11-12T04:47:36.727Z,6.05
2022-11-12T04:52:38.525Z,5.53
2022-11-12T04:57:40.329Z,5.40
2022-11-12T05:02:42.368Z,4.63
2022-11-12T05:07:44.272Z,5.25
2022-11-12T05:12:46.357Z,6.03
2022-11-12T05:17:48.168Z,5.57
2022-11-12T05:23:04.818Z,5.25
2022-11-12T05:28:08.075Z,6.27
2022-11-12T05:33:09.798Z,4.65
2022-11-12T05:38:11.642Z,4.95
2022-11-12T05:43:13.386Z,6.32
2022-11-12T05:48:17.787Z,4.20
2022-11-12T05:53:21.971Z,5.47
2022-11-12T05:58:24.065Z,4.97
2022-11-12T06:03:26.542Z,5.45
2022-11-12T06:08:28.933Z,4.68
2022-11-12T06:13:31.103Z,5.35
2022-11-12T06:18:32.913Z,4.53
2022-11-12T06:23:34.665Z,9.32
2022-11-12T06:28:36.518Z,5.07
2022-11-12T06:33:38.461Z,5.22
2022-11-12T06:38:41.171Z,5.07
2022-11-12T06:43:43.322Z,5.13
2022-11-12T06:48:45.105Z,5.88
2022-11-12T06:53:47.391Z,5.13
2022-11-12T06:58:49.114Z,4.05
2022-11-12T07:03:54.273Z,4.55
2022-11-12T07:08:56.425Z,4.40
2022-11-12T07:13:58.303Z,4.05
2022-11-12T07:19:00.211Z,4.20
2022-11-12T07:24:01.995Z,4.20
2022-11-12T07:29:03.858Z,4.38
2022-11-12T07:34:05.838Z,5.72
2022-11-12T07:39:07.963Z,4.60
2022-11-12T07:44:10.129Z,3.55
2022-11-12T07:49:12.111Z,3.15
2022-11-12T07:54:14.165Z,3.42
2022-11-12T07:59:16.133Z,4.88
2022-11-12T08:04:18.127Z,3.83
2022-11-12T08:09:19.939Z,4.00
2022-11-12T08:14:21.706Z,4.68
2022-11-12T08:19:23.475Z,3.85
2022-11-12T08:24:25.322Z,4.70
2022-11-12T08:29:27.322Z,3.80
2022-11-12T08:34:29.062Z,4.63
2022-11-12T08:39:30.846Z,4.57
2022-11-12T08:44:32.678Z,3.97
2022-11-12T08:49:34.535Z,4.28
2022-11-12T08:54:36.510Z,4.20
2022-11-12T08:59:38.289Z,3.80
2022-11-12T09:04:40.229Z,3.78
2022-11-12T09:09:42.208Z,4.47
2022-11-12T09:14:44.079Z,4.43
2022-11-12T09:19:45.826Z,4.90
2022-11-12T09:24:47.615Z,5.90
2022-11-12T09:29:49.378Z,4.38
2022-11-12T09:34:51.104Z,4.50
2022-11-12T09:39:52.855Z,5.40
2022-11-12T09:45:00.684Z,4.15
2022-11-12T09:50:27.090Z,4.27
2022-11-12T09:55:37.849Z,3.97
2022-11-12T10:00:45.142Z,4.88
2022-11-12T10:06:01.153Z,3.60
2022-11-12T10:11:16.994Z,5.22
2022-11-12T10:17:01.268Z,3.95
2022-11-12T10:22:14.977Z,3.72
2022-11-12T10:27:21.075Z,4.47
2022-11-12T10:32:23.158Z,4.35
2022-11-12T10:37:28.190Z,4.07
2022-11-12T10:42:30.124Z,3.50
2022-11-12T10:47:42.860Z,4.00
2022-11-12T10:52:56.888Z,3.50
2022-11-12T10:58:21.503Z,3.95
2022-11-12T11:03:36.704Z,6.97
2022-11-12T11:08:47.386Z,4.80
2022-11-12T11:13:55.591Z,3.53
2022-11-12T11:19:05.981Z,3.33
2022-11-12T11:24:36.692Z,3.92
2022-11-12T11:29:47.896Z,4.25
2022-11-12T11:35:15.937Z,4.43
2022-11-12T11:40:41.460Z,4.40
2022-11-12T11:46:06.031Z,4.45
2022-11-12T11:51:29.063Z,4.50
2022-11-12T11:56:40.453Z,4.93
2022-11-12T12:02:16.312Z,3.80
2022-11-12T12:07:42.177Z,3.47
2022-11-12T12:12:43.955Z,4.78
2022-11-12T12:18:06.978Z,4.82
2022-11-12T12:23:39.212Z,6.85
2022-11-12T12:28:56.590Z,4.50
2022-11-12T12:34:30.897Z,5.60
2022-11-12T12:39:47.764Z,9.45
2022-11-12T12:45:01.021Z,4.07
2022-11-12T12:50:07.625Z,4.43
2022-11-12T12:55:42.611Z,4.97
2022-11-12T13:00:53.311Z,5.97
2022-11-12T13:06:08.130Z,5.05
2022-11-12T13:11:10.280Z,6.53
2022-11-12T13:16:51.116Z,5.20
2022-11-12T13:22:18.821Z,5.03
2022-11-12T13:27:40.777Z,6.35
2022-11-12T13:32:48.383Z,4.70
2022-11-12T13:38:15.781Z,6.00
2022-11-12T13:43:27.785Z,5.85
2022-11-12T13:48:38.999Z,5.38
2022-11-12T13:53:40.807Z,5.80
2022-11-12T13:58:44.120Z,6.43
2022-11-12T14:03:49.176Z,7.35
2022-11-12T14:08:56.976Z,7.40
2022-11-12T14:14:22.661Z,7.70
2022-11-12T14:19:52.810Z,9.05
2022-11-12T14:25:00.435Z,8.85
2022-11-12T14:30:34.613Z,9.65
2022-11-12T14:35:40.403Z,8.45
2022-11-12T14:41:02.105Z,9.02
2022-11-12T14:46:07.005Z,14.57
2022-11-12T14:51:11.633Z,11.30
2022-11-12T14:56:34.164Z,8.75
2022-11-12T15:07:01.499Z,10.00
2022-11-12T15:12:11.291Z,11.70
2022-11-12T15:17:39.513Z,13.73
2022-11-12T15:22:41.428Z,14.13
2022-11-12T15:27:43.536Z,13.45
2022-11-12T15:32:46.369Z,11.70
2022-11-12T15:37:48.388Z,13.07
2022-11-12T15:42:50.363Z,12.52
2022-11-12T15:47:52.842Z,11.93
2022-11-12T15:52:54.610Z,9.85
2022-11-12T15:57:56.407Z,11.77
2022-11-12T16:03:06.255Z,11.98
2022-11-12T16:08:08.438Z,14.40
2022-11-12T16:13:30.188Z,11.23
2022-11-12T16:18:32.252Z,14.52
2022-11-12T16:23:34.048Z,10.60
2022-11-12T16:28:36.201Z,10.18
2022-11-12T16:33:38.018Z,10.60
2022-11-12T16:38:39.728Z,11.02
2022-11-12T16:43:41.778Z,11.52
2022-11-12T16:48:43.583Z,9.45
2022-11-12T16:53:46.215Z,9.35
2022-11-12T16:58:48.813Z,16.77
2022-11-12T17:03:52.557Z,10.15
2022-11-12T17:08:54.836Z,8.85
2022-11-12T17:13:56.817Z,10.05
2022-11-12T17:19:01.535Z,10.13
2022-11-12T17:24:03.778Z,10.07
2022-11-12T17:29:08.346Z,10.05
2022-11-12T17:34:10.419Z,10.82
2022-11-12T17:39:13.590Z,9.63
2022-11-12T17:44:17.729Z,9.77
2022-11-12T17:49:19.656Z,11.65
2022-11-12T17:54:21.751Z,10.32
2022-11-12T17:59:23.567Z,11.77
2022-11-12T18:04:29.851Z,10.88
2022-11-12T18:09:32.640Z,9.27
2022-11-12T18:14:34.519Z,11.95
2022-11-12T18:19:36.300Z,8.50
2022-11-12T18:24:38.249Z,9.40
2022-11-12T18:29:41.575Z,9.05
2022-11-12T18:34:45.294Z,9.98
2022-11-12T18:39:47.193Z,9.98
2022-11-12T18:44:48.969Z,9.10
2022-11-12T18:49:50.898Z,9.98
2022-11-12T18:54:52.723Z,12.10
2022-11-12T18:59:55.131Z,9.85
2022-11-12T19:04:56.870Z,10.55
2022-11-12T19:09:58.690Z,10.10
2022-11-12T19:15:00.679Z,10.75
2022-11-12T19:20:02.560Z,10.52
2022-11-12T19:25:04.601Z,10.73
2022-11-12T19:30:07.003Z,10.13
2022-11-12T19:35:09.245Z,8.93
2022-11-12T19:40:11.585Z,15.60
2022-11-12T19:45:13.748Z,8.88
2022-11-12T19:50:15.786Z,9.63
2022-11-12T19:55:17.671Z,11.57
2022-11-12T20:00:19.574Z,15.45
2022-11-12T20:05:21.282Z,10.88
2022-11-12T20:10:23.013Z,9.23
2022-11-12T20:15:25.802Z,8.00
2022-11-12T20:20:27.673Z,8.50
2022-11-12T20:25:29.769Z,8.02
2022-11-12T20:30:31.678Z,7.10
2022-11-12T20:35:36.896Z,8.90
2022-11-12T20:40:38.785Z,9.15
2022-11-12T20:45:40.667Z,8.90
2022-11-12T20:51:02.333Z,8.73
2022-11-12T20:56:12.589Z,9.85
2022-11-12T21:01:16.622Z,10.77
2022-11-12T21:06:23.894Z,9.75
2022-11-12T21:11:25.897Z,9.27
2022-11-12T21:16:27.857Z,8.88
2022-11-12T21:21:31.680Z,10.07
2022-11-12T21:26:34.327Z,9.88
2022-11-12T21:31:36.346Z,9.50
2022-11-12T21:36:38.081Z,9.20
2022-11-12T21:41:40.051Z,8.38
2022-11-12T21:46:41.862Z,9.23
2022-11-12T21:51:43.712Z,8.93
2022-11-12T21:56:45.562Z,9.23
2022-11-12T22:01:47.521Z,9.13
2022-11-12T22:06:49.544Z,9.23
2022-11-12T22:11:51.474Z,9.20
2022-11-12T22:16:53.375Z,9.00
2022-11-12T22:21:55.326Z,9.77
2022-11-12T22:27:01.219Z,9.30
2022-11-12T22:32:05.853Z,10.75
2022-11-12T22:37:08.157Z,11.65
2022-11-12T22:42:10.022Z,11.65
2022-11-12T22:47:11.860Z,10.63
2022-11-12T22:52:13.633Z,9.98
2022-11-12T22:57:15.495Z,12.77
2022-11-12T23:02:17.343Z,10.02
2022-11-12T23:07:19.299Z,10.82
2022-11-12T23:12:21.162Z,11.85
2022-11-12T23:17:23.124Z,9.68
2022-11-12T23:22:24.958Z,11.70
2022-11-12T23:27:26.906Z,13.43
2022-11-12T23:32:28.661Z,11.98
2022-11-12T23:37:30.491Z,9.88
2022-11-12T23:42:32.443Z,8.40
2022-11-12T23:47:34.258Z,9.63
2022-11-12T23:52:36.176Z,8.80
2022-11-12T23:57:37.903Z,8.82
